createdAt,value
2022-12-16T00:01:28.692Z,1.00
2022-12-16T00:03:58.547Z,1.00
2022-12-16T00:06:30.672Z,1.00
2022-12-16T00:08:57.465Z,1.00
2022-12-16T00:11:24.655Z,1.00
2022-12-16T00:13:51.532Z,0.90
2022-12-16T00:16:20.749Z,0.90
2022-12-16T00:18:49.186Z,0.90
2022-12-16T00:21:18.467Z,0.80
2022-12-16T00:23:45.709Z,0.80
2022-12-16T00:26:13.104Z,0.80
2022-12-16T00:28:40.534Z,0.80
2022-12-16T00:31:07.771Z,0.80
2022-12-16T00:33:35.297Z,0.80
2022-12-16T00:36:02.501Z,0.80
2022-12-16T00:38:29.260Z,0.80
2022-12-16T00:40:56.244Z,0.80
2022-12-16T00:43:23.211Z,0.80
2022-12-16T00:45:50.492Z,0.80
2022-12-16T00:48:19.027Z,0.70
2022-12-16T00:50:55.238Z,0.70
2022-12-16T00:53:23.364Z,0.70
2022-12-16T00:55:50.199Z,0.70
2022-12-16T00:58:17.889Z,0.70
2022-12-16T01:00:44.633Z,0.60
2022-12-16T01:03:14.355Z,0.60
2022-12-16T01:05:43.687Z,0.60
2022-12-16T01:08:10.439Z,0.60
2022-12-16T01:10:37.305Z,0.60
2022-12-16T01:13:04.048Z,0.60
2022-12-16T01:15:30.911Z,0.70
2022-12-16T01:17:57.803Z,0.70
2022-12-16T01:20:24.672Z,0.70
2022-12-16T01:22:51.468Z,0.70
2022-12-16T01:25:18.958Z,0.70
2022-12-16T01:27:45.733Z,0.70
2022-12-16T01:30:12.982Z,0.70
2022-12-16T01:32:39.876Z,0.70
2022-12-16T01:35:17.948Z,0.70
2022-12-16T01:37:54.053Z,0.70
2022-12-16T01:40:24.081Z,0.70
2022-12-16T01:42:50.867Z,0.70
2022-12-16T01:45:36.062Z,0.70
2022-12-16T01:48:24.301Z,0.70
2022-12-16T01:50:57.730Z,0.70
2022-12-16T01:53:24.979Z,0.70
2022-12-16T01:55:54.761Z,0.70
2022-12-16T01:58:26.257Z,0.70
2022-12-16T02:00:54.599Z,0.70
2022-12-16T02:03:22.520Z,0.70
2022-12-16T02:05:50.724Z,0.70
2022-12-16T02:08:19.889Z,0.70
2022-12-16T02:11:17.756Z,0.70
2022-12-16T02:14:13.778Z,0.70
2022-12-16T02:17:07.289Z,0.70
2022-12-16T02:19:45.914Z,0.70
2022-12-16T02:22:52.872Z,0.70
2022-12-16T02:25:51.513Z,0.70
2022-12-16T02:32:37.113Z,0.80
2022-12-16T02:35:22.954Z,0.70
2022-12-16T02:38:18.176Z,0.70
2022-12-16T02:41:02.439Z,0.70
2022-12-16T02:43:36.369Z,0.80
2022-12-16T02:46:05.034Z,0.80
2022-12-16T02:48:31.929Z,0.80
2022-12-16T02:50:58.754Z,0.80
2022-12-16T02:53:25.862Z,0.80
2022-12-16T02:56:01.072Z,0.80
2022-12-16T02:59:02.288Z,0.80
2022-12-16T03:02:16.508Z,0.80
2022-12-16T03:05:04.471Z,0.80
2022-12-16T03:07:34.264Z,0.80
2022-12-16T03:10:06.365Z,0.80
2022-12-16T03:12:34.681Z,0.80
2022-12-16T03:15:02.722Z,0.80
2022-12-16T03:17:29.591Z,0.80
2022-12-16T03:20:23.627Z,0.80
2022-12-16T03:22:54.518Z,0.80
2022-12-16T03:25:22.868Z,0.80
2022-12-16T03:28:21.814Z,0.80
2022-12-16T03:31:01.960Z,0.80
2022-12-16T03:33:41.904Z,0.80
2022-12-16T03:36:22.195Z,0.80
2022-12-16T03:38:50.845Z,0.90
2022-12-16T03:41:20.712Z,0.90
2022-12-16T03:43:49.263Z,0.90
2022-12-16T03:46:17.636Z,0.90
2022-12-16T03:48:52.393Z,0.90
2022-12-16T03:51:20.688Z,0.90
2022-12-16T03:53:47.476Z,0.90
2022-12-16T03:56:14.517Z,0.90
2022-12-16T03:58:41.736Z,0.90
2022-12-16T04:01:09.893Z,0.90
2022-12-16T04:03:37.980Z,0.90
2022-12-16T04:06:05.691Z,0.90
2022-12-16T04:08:32.748Z,0.90
2022-12-16T04:11:18.103Z,0.90
2022-12-16T04:14:03.330Z,0.90
2022-12-16T04:16:49.500Z,1.00
2022-12-16T04:20:09.039Z,1.00
2022-12-16T04:22:58.863Z,1.00
2022-12-16T04:25:34.774Z,1.00
2022-12-16T04:28:02.121Z,1.00
2022-12-16T04:30:34.493Z,0.90
2022-12-16T04:33:25.835Z,0.90
2022-12-16T04:36:11.502Z,0.90
2022-12-16T04:38:57.164Z,0.90
2022-12-16T04:41:42.316Z,0.90
2022-12-16T04:44:28.153Z,0.90
2022-12-16T04:47:13.571Z,0.90
2022-12-16T04:49:59.248Z,0.90
2022-12-16T04:52:44.322Z,0.90
2022-12-16T04:55:30.537Z,0.90
2022-12-16T04:58:18.901Z,0.90
2022-12-16T05:01:06.307Z,0.90
2022-12-16T05:03:53.127Z,0.90
2022-12-16T05:06:39.470Z,0.90
2022-12-16T05:09:25.902Z,0.90
2022-12-16T05:12:11.597Z,0.90
2022-12-16T05:14:56.697Z,0.90
2022-12-16T05:17:42.117Z,0.90
2022-12-16T05:20:27.690Z,0.90
2022-12-16T05:23:15.772Z,0.90
2022-12-16T05:26:01.370Z,0.90
2022-12-16T05:28:47.237Z,0.90
2022-12-16T05:31:32.914Z,0.90
2022-12-16T05:34:18.119Z,0.90
2022-12-16T05:37:03.294Z,0.90
2022-12-16T05:39:48.767Z,0.90
2022-12-16T05:42:33.895Z,0.90
2022-12-16T05:45:19.097Z,0.90
2022-12-16T05:48:07.363Z,0.90
2022-12-16T05:50:53.360Z,0.90
2022-12-16T05:53:41.289Z,0.90
2022-12-16T05:56:26.485Z,0.90
2022-12-16T05:59:11.540Z,0.90
2022-12-16T06:01:56.926Z,0.90
2022-12-16T06:04:42.198Z,0.90
2022-12-16T06:07:27.663Z,0.90
2022-12-16T06:10:13.106Z,0.90
2022-12-16T06:12:58.320Z,0.90
2022-12-16T06:15:43.322Z,0.90
2022-12-16T06:18:28.299Z,0.90
2022-12-16T06:21:13.588Z,0.90
2022-12-16T06:23:59.036Z,0.90
2022-12-16T06:26:44.193Z,0.90
2022-12-16T06:29:29.665Z,0.90
2022-12-16T06:32:14.730Z,0.90
2022-12-16T06:35:00.013Z,0.90
2022-12-16T06:37:45.389Z,0.90
2022-12-16T06:40:30.913Z,0.90
2022-12-16T06:43:16.121Z,0.90
2022-12-16T06:46:01.685Z,0.90
2022-12-16T06:48:46.929Z,0.90
2022-12-16T06:51:32.024Z,0.90
2022-12-16T06:54:17.482Z,0.90
2022-12-16T06:57:02.641Z,0.90
2022-12-16T07:00:08.492Z,0.90
2022-12-16T07:02:54.094Z,0.90
2022-12-16T07:05:39.782Z,0.90
2022-12-16T07:08:25.438Z,0.90
2022-12-16T07:11:16.511Z,0.90
2022-12-16T07:14:03.573Z,0.90
2022-12-16T07:16:48.740Z,0.90
2022-12-16T07:19:35.342Z,0.90
2022-12-16T07:22:20.591Z,0.90
2022-12-16T07:25:05.565Z,0.90
2022-12-16T07:27:51.093Z,0.90
2022-12-16T07:30:36.176Z,1.00
2022-12-16T07:33:21.871Z,1.00
2022-12-16T07:36:07.402Z,1.00
2022-12-16T07:38:52.824Z,1.00
2022-12-16T07:41:38.053Z,1.00
2022-12-16T07:44:23.763Z,1.00
2022-12-16T07:47:08.963Z,1.00
2022-12-16T07:49:55.297Z,1.00
2022-12-16T07:52:41.303Z,1.10
2022-12-16T07:55:27.396Z,1.10
2022-12-16T07:58:13.017Z,1.10
2022-12-16T08:00:58.196Z,1.10
2022-12-16T08:03:43.812Z,1.10
2022-12-16T08:06:28.948Z,1.10
2022-12-16T08:09:21.950Z,1.10
2022-12-16T08:12:07.241Z,1.10
2022-12-16T08:14:52.476Z,1.10
2022-12-16T08:17:37.888Z,1.10
2022-12-16T08:20:23.873Z,1.10
2022-12-16T08:23:09.145Z,1.10
2022-12-16T08:25:54.589Z,1.10
2022-12-16T08:28:40.861Z,1.10
2022-12-16T08:31:26.196Z,1.20
2022-12-16T08:34:11.392Z,1.20
2022-12-16T08:36:56.468Z,1.20
2022-12-16T08:39:41.774Z,1.20
2022-12-16T08:42:27.163Z,1.20
2022-12-16T08:45:12.635Z,1.20
2022-12-16T08:47:59.099Z,1.20
2022-12-16T08:50:44.341Z,1.20
2022-12-16T08:53:29.722Z,1.30
2022-12-16T08:56:15.062Z,1.30
2022-12-16T08:59:00.618Z,1.30
2022-12-16T09:01:45.946Z,1.30
2022-12-16T09:04:31.240Z,1.30
2022-12-16T09:07:16.723Z,1.30
2022-12-16T09:10:01.777Z,1.30
2022-12-16T09:12:46.989Z,1.30
2022-12-16T09:15:32.409Z,1.30
2022-12-16T09:18:17.779Z,1.30
2022-12-16T09:21:03.046Z,1.40
2022-12-16T09:23:48.490Z,1.40
2022-12-16T09:26:33.858Z,1.40
2022-12-16T09:29:19.546Z,1.40
2022-12-16T09:32:05.391Z,1.40
2022-12-16T09:34:50.834Z,1.50
2022-12-16T09:37:36.201Z,1.50
2022-12-16T09:40:22.955Z,1.50
2022-12-16T09:43:54.296Z,1.50
2022-12-16T09:47:11.236Z,1.50
2022-12-16T09:50:05.952Z,1.50
2022-12-16T09:52:59.467Z,1.60
2022-12-16T09:55:51.379Z,1.60
2022-12-16T09:58:39.557Z,1.60
2022-12-16T10:01:25.440Z,1.70
2022-12-16T10:04:10.618Z,1.70
2022-12-16T10:07:12.264Z,1.70
2022-12-16T10:10:30.480Z,1.80
2022-12-16T10:13:43.304Z,1.80
2022-12-16T10:17:06.268Z,1.80
2022-12-16T10:20:35.605Z,1.80
2022-12-16T10:23:51.750Z,1.90
2022-12-16T10:26:58.586Z,2.00
2022-12-16T10:29:47.288Z,2.00
2022-12-16T10:32:43.157Z,2.00
2022-12-16T10:36:14.671Z,2.10
2022-12-16T10:39:19.684Z,2.10
2022-12-16T10:42:09.154Z,2.20
2022-12-16T10:44:59.270Z,2.30
2022-12-16T10:47:44.418Z,2.30
2022-12-16T10:50:34.278Z,2.30
2022-12-16T10:53:28.641Z,2.30
2022-12-16T10:56:57.241Z,2.40
2022-12-16T10:59:53.318Z,2.40
2022-12-16T11:02:43.110Z,2.40
2022-12-16T11:05:48.980Z,2.40
2022-12-16T11:08:55.708Z,2.40
2022-12-16T11:11:46.243Z,2.50
2022-12-16T11:15:12.676Z,2.50
2022-12-16T11:17:56.653Z,2.50
2022-12-16T11:20:45.456Z,2.50
2022-12-16T11:23:39.394Z,2.50
2022-12-16T11:26:36.790Z,2.50
2022-12-16T11:29:37.160Z,2.60
2022-12-16T11:32:34.166Z,2.60
2022-12-16T11:35:23.410Z,2.60
2022-12-16T11:38:11.591Z,2.60
2022-12-16T11:40:57.952Z,2.60
2022-12-16T11:43:45.846Z,2.60
2022-12-16T11:46:44.935Z,2.60
2022-12-16T11:49:43.323Z,2.60
2022-12-16T11:52:37.169Z,2.60
2022-12-16T11:56:05.388Z,2.60
2022-12-16T11:58:58.008Z,2.50
2022-12-16T12:02:05.896Z,2.50
2022-12-16T12:04:51.461Z,2.50
2022-12-16T12:07:45.628Z,2.50
2022-12-16T12:10:47.979Z,2.60
2022-12-16T12:14:08.607Z,2.60
2022-12-16T12:17:11.404Z,2.60
2022-12-16T12:20:05.537Z,2.60
2022-12-16T12:22:58.285Z,2.60
2022-12-16T12:26:08.818Z,2.60
2022-12-16T12:29:08.446Z,2.60
2022-12-16T12:32:36.674Z,2.60
2022-12-16T12:36:09.648Z,2.60
2022-12-16T12:39:27.100Z,2.60
2022-12-16T12:43:01.628Z,2.60
2022-12-16T12:46:36.203Z,2.60
2022-12-16T12:49:46.730Z,2.50
2022-12-16T12:53:08.041Z,2.50
2022-12-16T12:56:13.688Z,2.50
2022-12-16T12:59:01.251Z,2.50
2022-12-16T13:01:53.676Z,2.50
2022-12-16T13:04:42.097Z,2.50
2022-12-16T13:07:28.283Z,2.50
2022-12-16T13:10:49.355Z,2.50
2022-12-16T13:13:35.548Z,2.50
2022-12-16T13:16:31.313Z,2.60
2022-12-16T13:19:48.127Z,2.60
2022-12-16T13:22:51.518Z,2.60
2022-12-16T13:26:09.984Z,2.60
2022-12-16T13:28:57.645Z,2.60
2022-12-16T13:31:44.472Z,2.60
2022-12-16T13:34:35.843Z,2.70
2022-12-16T13:37:29.813Z,2.70
2022-12-16T13:40:32.514Z,2.70
2022-12-16T13:43:23.271Z,2.70
2022-12-16T13:46:18.447Z,2.70
2022-12-16T13:49:03.754Z,2.70
2022-12-16T13:51:57.792Z,2.70
2022-12-16T13:55:25.088Z,2.60
2022-12-16T13:58:22.405Z,2.60
2022-12-16T14:01:21.815Z,2.60
2022-12-16T14:04:10.402Z,2.60
2022-12-16T14:07:00.702Z,2.60
2022-12-16T14:10:00.936Z,2.60
2022-12-16T14:13:24.715Z,2.60
2022-12-16T14:16:40.237Z,2.60
2022-12-16T14:19:45.585Z,2.60
2022-12-16T14:23:00.996Z,2.60
2022-12-16T14:25:47.764Z,2.60
2022-12-16T14:28:51.368Z,2.60
2022-12-16T14:31:41.678Z,2.60
2022-12-16T14:34:54.757Z,2.60
2022-12-16T14:37:55.816Z,2.60
2022-12-16T14:40:50.400Z,2.50
2022-12-16T14:43:44.354Z,2.60
2022-12-16T14:46:47.588Z,2.50
2022-12-16T14:49:46.087Z,2.50
2022-12-16T14:52:45.458Z,2.50
2022-12-16T14:55:53.402Z,2.50
2022-12-16T14:58:42.355Z,2.50
2022-12-16T15:01:43.109Z,2.50
2022-12-16T15:04:38.091Z,2.50
2022-12-16T15:07:31.161Z,2.50
2022-12-16T15:10:17.655Z,2.50
2022-12-16T15:13:04.053Z,2.50
2022-12-16T15:16:01.621Z,2.50
2022-12-16T15:18:58.051Z,2.50
2022-12-16T15:21:44.018Z,2.40
2022-12-16T15:24:35.976Z,2.40
2022-12-16T15:27:39.522Z,2.40
2022-12-16T15:30:53.866Z,2.40
2022-12-16T15:33:53.688Z,2.50
2022-12-16T15:36:55.276Z,2.40
2022-12-16T15:39:45.810Z,2.40
2022-12-16T15:42:46.113Z,2.40
2022-12-16T15:45:49.742Z,2.40
2022-12-16T15:48:52.090Z,2.40
2022-12-16T15:52:03.872Z,2.40
2022-12-16T15:54:49.405Z,2.40
2022-12-16T15:57:54.962Z,2.40
2022-12-16T16:00:49.732Z,2.40
2022-12-16T16:03:49.838Z,2.40
2022-12-16T16:06:43.173Z,2.40
2022-12-16T16:09:39.798Z,2.40
2022-12-16T16:12:27.797Z,2.40
2022-12-16T16:15:13.155Z,2.40
2022-12-16T16:17:58.885Z,2.40
2022-12-16T16:20:44.564Z,2.40
2022-12-16T16:23:30.526Z,2.40
2022-12-16T16:26:16.614Z,2.40
2022-12-16T16:29:02.160Z,2.40
2022-12-16T16:31:47.390Z,2.30
2022-12-16T16:34:32.759Z,2.40
2022-12-16T16:37:18.185Z,2.40
2022-12-16T16:40:03.994Z,2.40
2022-12-16T16:42:49.129Z,2.40
2022-12-16T16:45:34.932Z,2.40
2022-12-16T16:48:52.470Z,2.40
2022-12-16T16:51:38.015Z,2.40
2022-12-16T16:54:23.495Z,2.40
2022-12-16T16:57:08.718Z,2.40
2022-12-16T16:59:53.855Z,2.40
2022-12-16T17:02:41.986Z,2.40
2022-12-16T17:05:32.055Z,2.30
2022-12-16T17:08:17.278Z,2.30
2022-12-16T17:11:02.577Z,2.30
2022-12-16T17:13:47.740Z,2.30
2022-12-16T17:16:33.362Z,2.40
2022-12-16T17:19:18.635Z,2.30
2022-12-16T17:22:17.537Z,2.30
2022-12-16T17:25:02.634Z,2.30
2022-12-16T17:27:47.811Z,2.30
2022-12-16T17:30:47.119Z,2.30
2022-12-16T17:33:35.254Z,2.30
2022-12-16T17:36:20.914Z,2.30
2022-12-16T17:39:06.544Z,2.30
2022-12-16T17:41:53.059Z,2.30
2022-12-16T17:44:38.613Z,2.30
2022-12-16T17:47:23.842Z,2.30
2022-12-16T17:50:08.977Z,2.40
2022-12-16T17:52:54.243Z,2.40
2022-12-16T17:55:39.443Z,2.40
2022-12-16T17:58:24.662Z,2.30
2022-12-16T18:01:10.262Z,2.40
2022-12-16T18:03:55.471Z,2.30
2022-12-16T18:06:41.004Z,2.40
2022-12-16T18:09:26.192Z,2.40
2022-12-16T18:12:11.505Z,2.40
2022-12-16T18:14:56.863Z,2.40
2022-12-16T18:17:42.218Z,2.40
2022-12-16T18:20:27.877Z,2.40
2022-12-16T18:23:15.141Z,2.40
2022-12-16T18:26:00.687Z,2.40
2022-12-16T18:28:46.142Z,2.40
2022-12-16T18:31:31.452Z,2.40
2022-12-16T18:34:16.657Z,2.40
2022-12-16T18:37:02.049Z,2.40
2022-12-16T18:39:47.108Z,2.50
2022-12-16T18:42:32.554Z,2.40
2022-12-16T18:45:18.008Z,2.40
2022-12-16T18:48:03.533Z,2.40
2022-12-16T18:50:48.929Z,2.40
2022-12-16T18:53:34.883Z,2.50
2022-12-16T18:56:26.442Z,2.40
2022-12-16T18:59:12.173Z,2.40
2022-12-16T19:01:58.293Z,2.50
2022-12-16T19:04:43.864Z,2.50
2022-12-16T19:07:32.824Z,2.40
2022-12-16T19:10:18.844Z,2.40
2022-12-16T19:13:11.579Z,2.50
2022-12-16T19:15:57.189Z,2.50
2022-12-16T19:18:42.549Z,2.50
2022-12-16T19:21:28.710Z,2.50
2022-12-16T19:24:13.905Z,2.50
2022-12-16T19:26:59.459Z,2.50
2022-12-16T19:29:45.014Z,2.50
2022-12-16T19:32:30.214Z,2.50
2022-12-16T19:35:15.450Z,2.60
2022-12-16T19:38:00.666Z,2.60
2022-12-16T19:40:45.934Z,2.60
2022-12-16T19:43:31.434Z,2.60
2022-12-16T19:46:17.245Z,2.60
2022-12-16T19:49:02.529Z,2.60
2022-12-16T19:51:47.830Z,2.60
2022-12-16T19:54:33.283Z,2.60
2022-12-16T19:57:18.380Z,2.60
2022-12-16T20:00:03.459Z,2.60
2022-12-16T20:02:49.106Z,2.60
2022-12-16T20:05:35.150Z,2.60
2022-12-16T20:08:20.258Z,2.60
2022-12-16T20:11:16.097Z,2.60
2022-12-16T20:14:01.650Z,2.60
2022-12-16T20:16:46.870Z,2.60
2022-12-16T20:19:32.004Z,2.60
2022-12-16T20:22:17.455Z,2.60
2022-12-16T20:25:03.015Z,2.60
2022-12-16T20:27:48.579Z,2.60
2022-12-16T20:30:34.451Z,2.60
2022-12-16T20:33:19.646Z,2.60
2022-12-16T20:36:15.775Z,2.60
2022-12-16T20:39:00.996Z,2.60
2022-12-16T20:41:46.524Z,2.60
2022-12-16T20:44:31.948Z,2.60
2022-12-16T20:47:17.092Z,2.60
2022-12-16T20:50:02.249Z,2.60
2022-12-16T20:52:47.629Z,2.60
2022-12-16T20:55:33.226Z,2.60
2022-12-16T20:58:18.800Z,2.60
2022-12-16T21:01:04.472Z,2.60
2022-12-16T21:03:49.708Z,2.60
2022-12-16T21:06:35.288Z,2.60
2022-12-16T21:09:20.591Z,2.60
2022-12-16T21:12:05.894Z,2.60
2022-12-16T21:14:51.621Z,2.60
2022-12-16T21:17:37.333Z,2.60
2022-12-16T21:20:23.518Z,2.60
2022-12-16T21:23:18.340Z,2.60
2022-12-16T21:26:04.153Z,2.60
2022-12-16T21:28:49.424Z,2.70
2022-12-16T21:31:34.751Z,2.70
2022-12-16T21:34:20.126Z,2.70
2022-12-16T21:37:05.322Z,2.70
2022-12-16T21:39:50.453Z,2.70
2022-12-16T21:45:40.973Z,2.70
2022-12-16T21:48:30.153Z,2.70
2022-12-16T21:51:15.521Z,2.80
2022-12-16T21:57:06.598Z,2.80
2022-12-16T21:59:51.793Z,2.80
2022-12-16T22:02:37.135Z,2.80
2022-12-16T22:05:25.639Z,2.80
2022-12-16T22:08:10.724Z,2.80
2022-12-16T22:10:56.171Z,2.80
2022-12-16T22:13:41.878Z,2.80
2022-12-16T22:16:27.871Z,2.80
2022-12-16T22:19:14.429Z,2.80
2022-12-16T22:21:59.459Z,2.80
2022-12-16T22:24:44.703Z,2.70
2022-12-16T22:27:29.905Z,2.70
2022-12-16T22:30:15.071Z,2.80
2022-12-16T22:33:00.633Z,2.80
2022-12-16T22:35:45.801Z,2.80
2022-12-16T22:36:21.964Z,2.80
2022-12-16T22:38:31.248Z,2.70
2022-12-16T22:41:18.277Z,2.80
2022-12-16T22:44:04.370Z,2.70
2022-12-16T22:46:50.787Z,2.80
2022-12-16T22:49:36.988Z,2.70
2022-12-16T22:52:22.772Z,2.70
2022-12-16T22:55:08.088Z,2.70
2022-12-16T22:57:53.596Z,2.70
2022-12-16T23:00:39.591Z,2.70
2022-12-16T23:03:24.953Z,2.70
2022-12-16T23:06:10.176Z,2.70
2022-12-16T23:08:55.521Z,2.70
2022-12-16T23:11:56.638Z,2.70
2022-12-16T23:14:43.067Z,2.70
2022-12-16T23:17:30.515Z,2.70
2022-12-16T23:20:16.365Z,2.60
2022-12-16T23:23:01.638Z,2.70
2022-12-16T23:25:47.102Z,2.60
2022-12-16T23:28:32.272Z,2.60
2022-12-16T23:31:17.368Z,2.60
2022-12-16T23:32:31.291Z,2.80
2022-12-16T23:34:02.876Z,2.60
2022-12-16T23:36:48.419Z,2.60
2022-12-16T23:39:33.725Z,2.60
2022-12-16T23:42:19.217Z,2.60
2022-12-16T23:45:04.759Z,2.60
2022-12-16T23:47:50.141Z,2.60
2022-12-16T23:50:36.053Z,2.60
2022-12-16T23:53:27.327Z,2.60
2022-12-16T23:56:18.667Z,2.60
2022-12-16T23:59:06.686Z,2.60
